Time;durP1;ratioP1;P1;durP2;ratioP2;P2;SDS_P1;SDS_P2;PMS_P1;PMS_P2;Temp;Humidity;BMP_temperature;BMP_pressure;BME280_temperature;BME280_humidity;BME280_pressure;Samples;Min_cycle;Max_cycle;Signal;HPM_P1;HPM_P2
2021/10/20 00:01:40;;;;;;;2.60;1.90;;;11.80;94.50;;;;;;5079129;28;20285;-64
2021/10/20 00:04:07;;;;;;;3.60;2.42;;;11.80;94.60;;;;;;5079021;28;20886;-63
2021/10/20 00:06:39;;;;;;;2.58;1.60;;;11.80;94.40;;;;;;5078827;28;20699;-64
2021/10/20 00:09:06;;;;;;;2.92;1.80;;;11.70;94.10;;;;;;5078647;28;20311;-63
2021/10/20 00:11:33;;;;;;;5.20;2.47;;;11.60;94.40;;;;;;5079117;28;20280;-64
2021/10/20 00:14:00;;;;;;;2.75;1.80;;;11.60;94.70;;;;;;5078931;28;20221;-64
2021/10/20 00:16:29;;;;;;;2.58;1.98;;;11.60;94.90;;;;;;5078790;28;20232;-63
2021/10/20 00:18:57;;;;;;;2.80;1.67;;;11.60;94.90;;;;;;5078679;28;20201;-64
2021/10/20 00:21:26;;;;;;;4.70;1.98;;;11.50;95.00;;;;;;5078811;28;20304;-64
2021/10/20 00:23:54;;;;;;;2.70;1.75;;;11.60;95.00;;;;;;5078992;28;20640;-64
2021/10/20 00:26:21;;;;;;;2.53;1.63;;;11.60;95.00;;;;;;5078805;28;20624;-64
2021/10/20 00:28:48;;;;;;;3.13;1.67;;;11.60;95.10;;;;;;5078850;28;20229;-64
2021/10/20 00:31:15;;;;;;;3.55;1.80;;;11.60;95.00;;;;;;5079052;28;20276;-64
2021/10/20 00:33:44;;;;;;;3.67;2.05;;;11.60;94.70;;;;;;5077030;28;20201;-63
2021/10/20 00:36:13;;;;;;;5.68;1.80;;;11.60;94.60;;;;;;5075396;28;20185;-64
2021/10/20 00:38:41;;;;;;;2.40;1.58;;;11.60;93.80;;;;;;5075478;28;20196;-64
2021/10/20 00:41:14;;;;;;;8.57;1.90;;;11.50;93.10;;;;;;5075354;28;20328;-63
2021/10/20 00:43:42;;;;;;;3.25;1.75;;;11.50;93.00;;;;;;5075283;28;20233;-63
2021/10/20 00:46:09;;;;;;;3.00;1.85;;;11.40;92.20;;;;;;5075285;28;20288;-63
2021/10/20 00:48:36;;;;;;;2.67;1.63;;;11.30;92.40;;;;;;5075458;28;20276;-63
2021/10/20 00:51:04;;;;;;;4.30;1.67;;;11.30;91.80;;;;;;5074928;28;20282;-63
2021/10/20 00:53:33;;;;;;;2.20;1.45;;;11.20;91.80;;;;;;5075139;28;20277;-63
2021/10/20 00:56:00;;;;;;;2.40;1.42;;;11.20;91.70;;;;;;5075243;28;20272;-63
2021/10/20 00:58:32;;;;;;;2.50;1.42;;;11.10;91.40;;;;;;5075180;28;20273;-63
2021/10/20 01:00:59;;;;;;;2.67;1.40;;;11.00;91.40;;;;;;5075083;28;20214;-63
2021/10/20 01:03:26;;;;;;;2.33;1.30;;;10.90;91.40;;;;;;5074989;28;20281;-63
2021/10/20 01:05:53;;;;;;;3.47;1.90;;;10.80;91.30;;;;;;5074982;28;20276;-63
2021/10/20 01:08:21;;;;;;;2.58;1.38;;;10.80;91.50;;;;;;5075172;28;20654;-63
2021/10/20 01:10:48;;;;;;;2.00;1.30;;;10.70;91.50;;;;;;5074816;28;20313;-63
2021/10/20 01:13:15;;;;;;;2.60;1.60;;;10.70;91.60;;;;;;5074969;28;20289;-63
2021/10/20 01:15:47;;;;;;;1.92;1.10;;;10.60;91.60;;;;;;5074853;28;20284;-63
2021/10/20 01:18:14;;;;;;;3.05;2.05;;;10.60;92.00;;;;;;5074830;28;20202;-64
2021/10/20 01:20:44;;;;;;;2.97;1.45;;;10.60;92.40;;;;;;5074568;28;20263;-63
2021/10/20 01:23:12;;;;;;;2.53;1.70;;;10.60;92.90;;;;;;5074601;28;20286;-63
2021/10/20 01:25:39;;;;;;;3.58;2.00;;;10.60;93.30;;;;;;5074474;28;20723;-63
2021/10/20 01:28:06;;;;;;;2.95;1.55;;;10.60;93.40;;;;;;5074558;28;20277;-63
2021/10/20 01:30:33;;;;;;;2.40;1.70;;;10.60;93.40;;;;;;5074414;28;20190;-63
2021/10/20 01:33:00;;;;;;;2.30;1.50;;;10.60;93.20;;;;;;5074529;28;20193;-63
2021/10/20 01:35:27;;;;;;;2.50;1.60;;;10.60;93.20;;;;;;5074212;28;20272;-64
2021/10/20 01:37:54;;;;;;;2.25;1.42;;;10.60;93.00;;;;;;5074456;28;20229;-63
2021/10/20 01:40:22;;;;;;;2.13;1.33;;;10.60;92.60;;;;;;5074003;28;20304;-63
2021/10/20 01:42:49;;;;;;;2.15;1.20;;;10.50;92.30;;;;;;5074144;28;20281;-63
2021/10/20 01:45:17;;;;;;;3.05;1.60;;;10.50;92.30;;;;;;5074226;28;20609;-63
2021/10/20 01:47:46;;;;;;;2.88;1.45;;;10.50;92.10;;;;;;5074297;28;20206;-63
2021/10/20 01:50:15;;;;;;;2.13;1.45;;;10.40;91.80;;;;;;5073723;28;20732;-64
2021/10/20 01:52:43;;;;;;;2.00;1.10;;;10.40;91.90;;;;;;5074156;28;20225;-63
2021/10/20 01:55:12;;;;;;;2.60;1.38;;;10.40;91.90;;;;;;5073926;28;20233;-63
2021/10/20 01:57:43;;;;;;;2.17;1.30;;;10.40;92.00;;;;;;5073979;28;20193;-63
2021/10/20 02:00:15;;;;;;;1.90;1.13;;;10.30;91.90;;;;;;5073965;28;20235;-63
2021/10/20 02:02:43;;;;;;;1.80;1.10;;;10.30;91.70;;;;;;5073620;28;20590;-63
2021/10/20 02:05:11;;;;;;;3.10;1.33;;;10.30;91.50;;;;;;5073920;28;20288;-63
2021/10/20 02:07:38;;;;;;;2.10;1.10;;;10.20;91.30;;;;;;5073678;28;20288;-63
2021/10/20 02:10:07;;;;;;;2.33;1.08;;;10.20;91.30;;;;;;5073289;28;20767;-63
2021/10/20 02:12:34;;;;;;;2.17;1.30;;;10.10;91.30;;;;;;5073676;28;20229;-63
2021/10/20 02:15:03;;;;;;;3.45;1.40;;;10.00;91.50;;;;;;5073577;28;20683;-63
2021/10/20 02:17:30;;;;;;;2.90;1.40;;;9.90;92.00;;;;;;5073420;28;20667;-63
2021/10/20 02:19:57;;;;;;;3.38;1.23;;;9.80;92.30;;;;;;5073298;28;20185;-63
2021/10/20 02:22:26;;;;;;;1.90;1.15;;;9.90;92.70;;;;;;5073163;28;20281;-63
2021/10/20 02:24:53;;;;;;;1.90;1.30;;;9.80;92.80;;;;;;5073649;28;20229;-63
2021/10/20 02:27:20;;;;;;;2.25;1.30;;;9.80;92.90;;;;;;5073197;28;20277;-63
2021/10/20 02:29:47;;;;;;;2.70;1.40;;;9.80;92.60;;;;;;5073492;28;20225;-64
2021/10/20 02:32:16;;;;;;;2.60;1.58;;;9.80;92.40;;;;;;5073260;28;20243;-63
2021/10/20 02:34:43;;;;;;;2.47;1.73;;;9.80;92.40;;;;;;5073467;28;20189;-63
2021/10/20 02:37:10;;;;;;;2.55;1.20;;;9.80;92.30;;;;;;5073287;28;20608;-64
2021/10/20 02:39:37;;;;;;;2.00;1.30;;;9.70;92.20;;;;;;5073115;28;20605;-63
2021/10/20 02:42:05;;;;;;;2.05;1.35;;;9.70;92.40;;;;;;5072951;28;20575;-63
2021/10/20 02:44:36;;;;;;;5.32;2.75;;;9.70;92.60;;;;;;5073088;28;20272;-63
2021/10/20 02:47:04;;;;;;;3.35;1.80;;;9.70;92.60;;;;;;5073143;28;20604;-63
2021/10/20 02:49:33;;;;;;;2.60;1.98;;;9.70;92.40;;;;;;5073424;28;20604;-63
2021/10/20 02:52:01;;;;;;;2.00;1.35;;;9.70;92.00;;;;;;5072854;28;20655;-63
2021/10/20 02:54:28;;;;;;;2.53;1.65;;;9.70;92.10;;;;;;5073276;28;20296;-63
2021/10/20 02:56:55;;;;;;;2.00;1.10;;;9.70;92.00;;;;;;5072513;28;20276;-63
2021/10/20 02:59:22;;;;;;;2.15;1.02;;;9.60;91.70;;;;;;5072878;28;20602;-63
2021/10/20 03:01:49;;;;;;;5.50;1.20;;;9.50;91.50;;;;;;5072974;28;20252;-64
2021/10/20 03:04:16;;;;;;;2.20;1.60;;;9.50;91.80;;;;;;5073068;28;20691;-63
2021/10/20 03:06:44;;;;;;;4.32;2.03;;;9.50;92.10;;;;;;5072768;28;20296;-63
2021/10/20 03:09:17;;;;;;;3.33;2.20;;;9.50;92.20;;;;;;5072412;28;20308;-63
2021/10/20 03:11:49;;;;;;;3.83;1.98;;;9.50;92.50;;;;;;5072848;28;20628;-63
2021/10/20 03:14:16;;;;;;;3.90;2.22;;;9.50;92.50;;;;;;5073118;28;20227;-63
2021/10/20 03:16:43;;;;;;;3.85;2.20;;;9.50;92.50;;;;;;5072890;28;20706;-63
2021/10/20 03:19:10;;;;;;;3.88;2.08;;;9.50;92.40;;;;;;5072676;28;20229;-63
2021/10/20 03:21:38;;;;;;;6.60;5.90;;;9.50;92.10;;;;;;5072530;28;20263;-63
2021/10/20 03:24:11;;;;;;;6.60;6.00;;;9.40;91.90;;;;;;5072939;28;20186;-63
2021/10/20 03:26:38;;;;;;;7.65;6.85;;;9.40;92.10;;;;;;5072299;28;20281;-63
2021/10/20 03:29:05;;;;;;;6.22;5.63;;;9.40;92.00;;;;;;5072722;28;20281;-63
2021/10/20 03:31:32;;;;;;;5.90;5.40;;;9.40;91.80;;;;;;5072778;28;20221;-63
2021/10/20 03:34:02;;;;;;;5.65;5.15;;;9.30;91.90;;;;;;5072508;28;20725;-63
2021/10/20 03:36:31;;;;;;;5.20;3.70;;;9.30;91.90;;;;;;5072633;28;20535;-63
2021/10/20 03:38:58;;;;;;;4.50;3.70;;;9.30;92.00;;;;;;5072229;28;20284;-63
2021/10/20 03:41:26;;;;;;;4.15;3.75;;;9.20;92.00;;;;;;5072163;28;20312;-63
2021/10/20 03:43:53;;;;;;;3.83;3.40;;;9.20;92.10;;;;;;5072338;28;20236;-63
2021/10/20 03:46:20;;;;;;;4.10;3.70;;;9.20;92.10;;;;;;5072671;28;20196;-63
2021/10/20 03:48:47;;;;;;;4.28;3.85;;;9.20;92.20;;;;;;5072292;28;20280;-63
2021/10/20 03:51:14;;;;;;;5.20;4.28;;;9.20;92.20;;;;;;5072272;28;20280;-63
2021/10/20 03:53:41;;;;;;;4.18;3.78;;;9.10;92.00;;;;;;5072425;28;20221;-63
2021/10/20 03:56:08;;;;;;;5.85;5.28;;;9.10;91.80;;;;;;5072393;28;20314;-63
2021/10/20 03:58:37;;;;;;;6.20;4.00;;;9.10;91.80;;;;;;5072541;28;20276;-63
2021/10/20 04:01:08;;;;;;;4.68;3.90;;;9.10;91.90;;;;;;5072119;28;20253;-63
2021/10/20 04:03:38;;;;;;;3.00;2.47;;;9.10;92.00;;;;;;5072708;28;20281;-63
2021/10/20 04:06:06;;;;;;;3.35;2.80;;;9.00;91.80;;;;;;5072384;28;20229;-63
2021/10/20 04:08:33;;;;;;;3.70;3.28;;;9.00;91.90;;;;;;5072342;28;20648;-63
2021/10/20 04:11:00;;;;;;;4.20;3.80;;;8.90;91.80;;;;;;5075653;28;20313;-63
2021/10/20 04:13:29;;;;;;;4.07;3.55;;;8.90;92.00;;;;;;5076170;28;20726;-63
2021/10/20 04:15:57;;;;;;;3.65;3.20;;;8.90;91.90;;;;;;5076380;28;20272;-64
2021/10/20 04:18:27;;;;;;;2.90;2.17;;;8.90;92.00;;;;;;5076116;28;20233;-63
2021/10/20 04:20:54;;;;;;;3.50;2.40;;;8.90;92.10;;;;;;5076173;28;20309;-63
2021/10/20 04:23:24;;;;;;;4.03;3.40;;;8.80;91.90;;;;;;5076260;28;20225;-63
2021/10/20 04:25:52;;;;;;;4.18;3.17;;;8.80;92.20;;;;;;5075955;28;20289;-63
2021/10/20 04:28:19;;;;;;;5.30;4.28;;;8.90;92.60;;;;;;5075823;28;20285;-64
2021/10/20 04:30:47;;;;;;;3.97;3.30;;;8.90;92.50;;;;;;5076156;28;20281;-63
2021/10/20 04:33:15;;;;;;;3.80;3.15;;;8.90;92.60;;;;;;5075966;28;20284;-63
2021/10/20 04:35:44;;;;;;;5.15;4.00;;;8.90;92.40;;;;;;5075858;28;20292;-63
2021/10/20 04:38:11;;;;;;;10.48;5.70;;;8.90;92.50;;;;;;5075941;28;20623;-63
2021/10/20 04:40:38;;;;;;;5.00;3.95;;;8.90;92.80;;;;;;5075879;28;20268;-63
2021/10/20 04:43:07;;;;;;;4.25;3.22;;;9.00;92.90;;;;;;5075908;28;20281;-63
2021/10/20 04:45:34;;;;;;;3.35;2.55;;;8.90;92.80;;;;;;5075596;28;20276;-63
2021/10/20 04:48:01;;;;;;;12.38;8.30;;;9.00;93.00;;;;;;5075538;28;20281;-63
2021/10/20 04:50:29;;;;;;;18.55;11.45;;;8.90;92.90;;;;;;5075527;28;20281;-63
2021/10/20 04:52:57;;;;;;;14.05;12.55;;;8.90;92.80;;;;;;5075449;28;20293;-63
2021/10/20 04:55:24;;;;;;;11.30;9.25;;;8.90;92.70;;;;;;5075313;28;20194;-63
2021/10/20 04:57:54;;;;;;;5.70;4.95;;;8.80;92.30;;;;;;5075166;28;20225;-63
2021/10/20 05:00:23;;;;;;;6.03;3.97;;;8.80;92.00;;;;;;5075325;28;20289;-64
2021/10/20 05:02:50;;;;;;;4.97;2.92;;;8.80;92.00;;;;;;5075138;28;20253;-63
2021/10/20 05:05:17;;;;;;;4.97;3.30;;;8.80;92.30;;;;;;5075189;28;20278;-63
2021/10/20 05:07:50;;;;;;;3.40;2.42;;;8.80;92.70;;;;;;5075290;28;20297;-63
2021/10/20 05:10:18;;;;;;;3.72;2.80;;;8.80;92.30;;;;;;5074977;28;20308;-64
2021/10/20 05:12:46;;;;;;;3.10;2.20;;;8.70;91.70;;;;;;5075193;28;20235;-64
2021/10/20 05:15:14;;;;;;;6.90;2.65;;;8.70;92.30;;;;;;5075193;28;20284;-63
2021/10/20 05:17:44;;;;;;;3.90;2.75;;;8.70;92.80;;;;;;5075217;28;20225;-63
2021/10/20 05:20:13;;;;;;;3.58;2.80;;;8.70;93.20;;;;;;5074593;28;20277;-63
2021/10/20 05:22:41;;;;;;;4.43;3.70;;;8.70;92.80;;;;;;5074915;28;20222;-63
2021/10/20 05:25:12;;;;;;;12.57;5.57;;;8.70;92.90;;;;;;5074826;28;20229;-63
2021/10/20 05:27:39;;;;;;;7.03;5.32;;;8.80;93.00;;;;;;5075135;28;20239;-63
2021/10/20 05:30:08;;;;;;;5.90;4.20;;;8.80;93.00;;;;;;5074820;28;20247;-63
2021/10/20 05:32:35;;;;;;;9.73;4.80;;;8.80;93.00;;;;;;5074566;28;20687;-63
2021/10/20 05:35:09;;;;;;;15.48;5.70;;;8.80;93.10;;;;;;5074891;28;20277;-66
2021/10/20 05:37:36;;;;;;;11.32;4.72;;;8.80;93.20;;;;;;5074526;28;20189;-63
2021/10/20 05:40:05;;;;;;;5.90;3.92;;;8.90;93.20;;;;;;5074667;28;20276;-63
2021/10/20 05:42:33;;;;;;;6.80;3.85;;;8.90;93.20;;;;;;5074545;28;20257;-63
2021/10/20 05:45:00;;;;;;;6.82;4.47;;;8.90;92.60;;;;;;5074349;28;20233;-63
2021/10/20 05:47:27;;;;;;;6.93;4.60;;;8.80;92.00;;;;;;5074633;28;20280;-63
2021/10/20 05:49:55;;;;;;;8.40;3.65;;;8.80;91.70;;;;;;5074380;28;20276;-63
2021/10/20 05:52:22;;;;;;;5.63;3.55;;;8.80;91.50;;;;;;5073979;28;20280;-63
2021/10/20 05:54:48;;;;;;;4.95;3.63;;;8.70;91.40;;;;;;5074314;28;20225;-64
2021/10/20 05:57:19;;;;;;;4.78;3.40;;;8.60;91.40;;;;;;5074269;28;20272;-63
2021/10/20 05:59:47;;;;;;;5.57;3.35;;;8.70;91.50;;;;;;5074218;28;20200;-67
2021/10/20 06:02:14;;;;;;;5.47;3.03;;;8.60;91.50;;;;;;5074482;28;20411;-63
2021/10/20 06:04:41;;;;;;;4.45;2.92;;;8.70;91.60;;;;;;5074166;28;20277;-64
2021/10/20 06:07:08;;;;;;;3.92;2.65;;;8.80;91.80;;;;;;5074031;28;20518;-63
2021/10/20 06:09:35;;;;;;;3.60;2.53;;;8.80;91.50;;;;;;5073729;28;20312;-63
2021/10/20 06:12:03;;;;;;;7.13;3.17;;;8.80;91.20;;;;;;5073977;28;20194;-63
2021/10/20 06:14:31;;;;;;;4.28;3.05;;;8.80;91.50;;;;;;5073566;28;20225;-63
2021/10/20 06:16:59;;;;;;;5.95;3.40;;;8.90;91.70;;;;;;5074050;28;20194;-63
2021/10/20 06:19:31;;;;;;;4.80;3.20;;;8.90;91.80;;;;;;5073774;28;20233;-63
2021/10/20 06:22:02;;;;;;;3.70;2.83;;;9.10;92.00;;;;;;5073951;28;20256;-64
2021/10/20 06:24:29;;;;;;;4.20;2.85;;;9.30;92.40;;;;;;5073623;28;20232;-63
2021/10/20 06:26:57;;;;;;;5.03;3.58;;;9.50;92.30;;;;;;5073768;28;20276;-63
2021/10/20 06:29:26;;;;;;;8.43;4.78;;;9.60;92.20;;;;;;5073517;28;20221;-63
2021/10/20 06:31:53;;;;;;;11.38;5.82;;;9.70;92.30;;;;;;5073054;28;20189;-63
2021/10/20 06:34:21;;;;;;;6.20;5.53;;;9.80;91.90;;;;;;5073495;28;20247;-64
2021/10/20 06:36:50;;;;;;;10.48;5.50;;;10.10;91.70;;;;;;5073439;28;20700;-65
2021/10/20 06:39:20;;;;;;;9.23;5.18;;;10.40;91.70;;;;;;5073699;28;20343;-63
2021/10/20 06:41:53;;;;;;;5.50;4.15;;;10.70;91.20;;;;;;5073631;28;20698;-63
2021/10/20 06:44:25;;;;;;;3.80;3.03;;;11.00;90.90;;;;;;5073320;28;20277;-64
2021/10/20 06:46:53;;;;;;;6.15;3.67;;;11.50;91.10;;;;;;5073573;28;20186;-63
2021/10/20 06:49:22;;;;;;;6.60;4.53;;;11.90;90.40;;;;;;5073289;28;20391;-65
2021/10/20 06:51:51;;;;;;;6.70;4.28;;;12.40;89.80;;;;;;5073253;28;20611;-64
2021/10/20 06:54:20;;;;;;;6.63;3.40;;;12.80;88.90;;;;;;5073225;28;20230;-63
2021/10/20 06:56:48;;;;;;;5.03;3.20;;;13.30;86.20;;;;;;5073533;28;20292;-63
2021/10/20 06:59:16;;;;;;;6.65;2.95;;;13.70;85.90;;;;;;5073003;28;20641;-63
2021/10/20 07:01:43;;;;;;;7.57;3.65;;;14.20;83.30;;;;;;5073268;28;20645;-63
2021/10/20 07:04:11;;;;;;;4.88;3.67;;;14.50;80.90;;;;;;5072984;28;20235;-64
2021/10/20 07:06:42;;;;;;;2.50;1.53;;;14.60;77.50;;;;;;5073120;28;20193;-63
2021/10/20 07:09:09;;;;;;;3.10;1.80;;;15.00;77.50;;;;;;5073083;28;20471;-63
2021/10/20 07:11:39;;;;;;;6.50;2.07;;;15.50;76.30;;;;;;5072920;28;20514;-64
2021/10/20 07:14:06;;;;;;;4.13;1.70;;;16.20;74.30;;;;;;5072969;28;20435;-63
2021/10/20 07:16:35;;;;;;;6.83;2.20;;;16.80;71.60;;;;;;5073226;28;20471;-63
2021/10/20 07:19:05;;;;;;;2.80;1.70;;;17.40;68.90;;;;;;5072970;28;20526;-63
2021/10/20 07:21:33;;;;;;;3.10;1.80;;;18.00;67.30;;;;;;5072605;28;20872;-64
2021/10/20 07:24:01;;;;;;;4.30;2.00;;;18.50;65.10;;;;;;5072966;28;20459;-63
2021/10/20 07:26:29;;;;;;;5.73;2.03;;;19.10;62.40;;;;;;5072929;28;20850;-64
2021/10/20 07:28:56;;;;;;;3.20;2.13;;;19.50;60.50;;;;;;5072710;28;20518;-64
2021/10/20 07:31:29;;;;;;;3.40;1.80;;;19.90;59.70;;;;;;5072663;28;20444;-65
2021/10/20 07:33:56;;;;;;;3.63;2.33;;;20.70;58.50;;;;;;5072778;28;21012;-64
2021/10/20 07:36:23;;;;;;;5.80;1.80;;;21.50;56.40;;;;;;5072724;28;20435;-65
2021/10/20 07:38:54;;;;;;;3.53;2.10;;;22.40;54.30;;;;;;5072637;28;20539;-65
2021/10/20 07:41:22;;;;;;;8.03;2.20;;;23.30;51.20;;;;;;5073000;28;20538;-64
2021/10/20 07:43:51;;;;;;;2.73;1.90;;;24.20;47.30;;;;;;5074104;28;20519;-64
2021/10/20 07:46:18;;;;;;;3.27;1.80;;;25.20;46.10;;;;;;5076894;28;20856;-64
2021/10/20 07:48:45;;;;;;;5.50;2.17;;;26.20;43.20;;;;;;5076892;28;20522;-64
2021/10/20 07:51:12;;;;;;;13.30;2.50;;;27.00;41.20;;;;;;5076629;28;20518;-64
2021/10/20 07:53:39;;;;;;;17.53;3.40;;;27.90;39.40;;;;;;5076610;28;20472;-64
2021/10/20 07:56:06;;;;;;;8.07;2.47;;;28.90;38.40;;;;;;5076504;28;20470;-64
2021/10/20 07:58:40;;;;;;;7.03;3.10;;;29.80;36.80;;;;;;5076503;28;20472;-65
2021/10/20 08:01:07;;;;;;;9.30;2.30;;;30.80;33.40;;;;;;5076447;28;20524;-65
2021/10/20 08:03:34;;;;;;;11.00;2.23;;;31.40;31.60;;;;;;5076242;28;21071;-65
2021/10/20 08:06:03;;;;;;;11.40;3.07;;;32.10;30.30;;;;;;5076503;28;20474;-64
2021/10/20 08:08:30;;;;;;;13.90;2.40;;;33.00;29.60;;;;;;5076426;28;20542;-65
2021/10/20 08:10:57;;;;;;;4.93;2.53;;;33.70;28.50;;;;;;5076300;28;20550;-65
2021/10/20 08:13:24;;;;;;;5.20;2.17;;;34.50;27.10;;;;;;5076250;28;20437;-65
2021/10/20 08:15:53;;;;;;;7.20;2.90;;;35.30;26.30;;;;;;5076107;28;20498;-65
2021/10/20 08:18:20;;;;;;;5.00;2.63;;;36.10;25.40;;;;;;5076487;28;20788;-66
2021/10/20 08:20:51;;;;;;;7.60;4.10;;;36.70;24.50;;;;;;5076155;28;20995;-64
2021/10/20 08:23:18;;;;;;;7.10;4.60;;;37.50;24.10;;;;;;5076149;28;20901;-65
2021/10/20 08:25:46;;;;;;;4.83;2.43;;;38.20;23.10;;;;;;5076245;28;20498;-65
2021/10/20 08:28:13;;;;;;;4.43;2.23;;;38.80;22.40;;;;;;5075930;28;20527;-65
2021/10/20 08:30:40;;;;;;;5.53;1.93;;;39.30;21.60;;;;;;5075858;28;20964;-66
2021/10/20 08:33:08;;;;;;;5.13;1.33;;;40.00;21.20;;;;;;5075841;28;20505;-63
2021/10/20 08:35:37;;;;;;;2.60;1.57;;;40.80;20.60;;;;;;5075927;28;20471;-63
2021/10/20 08:38:05;;;;;;;2.30;1.43;;;41.50;20.40;;;;;;5076011;28;20443;-63
2021/10/20 08:40:37;;;;;;;2.20;1.20;;;42.30;19.40;;;;;;5075629;28;20443;-63
2021/10/20 08:43:06;;;;;;;3.90;1.30;;;43.00;18.90;;;;;;5075713;28;20548;-63
2021/10/20 08:45:33;;;;;;;3.40;1.13;;;43.70;18.30;;;;;;5075348;28;20479;-64
2021/10/20 08:48:00;;;;;;;3.40;1.00;;;44.00;17.70;;;;;;5075755;28;20849;-64
2021/10/20 08:50:31;;;;;;;3.17;1.27;;;44.40;17.40;;;;;;5075495;28;20493;-63
2021/10/20 08:52:58;;;;;;;2.30;1.40;;;44.80;16.50;;;;;;5075501;28;20463;-64
2021/10/20 08:55:28;;;;;;;1.80;0.90;;;45.00;16.40;;;;;;5074749;28;20974;-64
2021/10/20 08:57:58;;;;;;;2.17;1.00;;;45.50;16.10;;;;;;5075574;28;20821;-64
2021/10/20 09:00:26;;;;;;;4.27;1.47;;;46.20;15.50;;;;;;5075346;28;20466;-64
2021/10/20 09:02:53;;;;;;;1.97;0.97;;;46.80;15.40;;;;;;5075067;28;20484;-64
2021/10/20 09:05:23;;;;;;;3.70;1.10;;;47.40;14.00;;;;;;5075268;28;20458;-64
2021/10/20 09:07:54;;;;;;;2.47;1.40;;;47.40;14.00;;;;;;5074987;28;20483;-65
2021/10/20 09:10:21;;;;;;;3.53;1.30;;;47.70;14.20;;;;;;5074914;28;20503;-64
2021/10/20 09:12:49;;;;;;;4.83;1.40;;;48.00;13.60;;;;;;5075110;28;20567;-64
2021/10/20 09:15:19;;;;;;;2.20;1.47;;;47.90;13.60;;;;;;5075081;28;20459;-64
2021/10/20 09:17:51;;;;;;;3.10;1.10;;;47.90;13.60;;;;;;5075103;28;20475;-64
2021/10/20 09:20:23;;;;;;;3.20;1.40;;;47.90;13.30;;;;;;5074939;28;20501;-64
2021/10/20 09:23:04;;;;;;;2.40;1.10;;;47.60;13.70;;;;;;5075053;28;20817;-64
2021/10/20 09:25:41;;;;;;;2.50;1.23;;;48.20;13.60;;;;;;5074754;28;20866;-64
2021/10/20 09:28:10;;;;;;;3.80;1.40;;;48.60;12.40;;;;;;5074704;28;20925;-63
2021/10/20 09:30:38;;;;;;;2.37;1.37;;;48.70;12.50;;;;;;5074922;28;20534;-63
2021/10/20 09:33:08;;;;;;;3.07;1.43;;;48.80;12.20;;;;;;5074687;28;20571;-64
2021/10/20 09:35:35;;;;;;;5.10;1.10;;;48.80;12.10;;;;;;5074753;28;20852;-64
2021/10/20 09:38:05;;;;;;;3.53;1.13;;;48.70;12.80;;;;;;5074553;28;20432;-64
2021/10/20 09:40:37;;;;;;;2.27;1.20;;;48.80;11.80;;;;;;5074666;28;20471;-64
2021/10/20 09:43:05;;;;;;;3.57;1.20;;;48.80;11.60;;;;;;5074600;28;20471;-64
2021/10/20 09:45:36;;;;;;;2.20;0.90;;;48.50;12.10;;;;;;5074267;28;20859;-63
2021/10/20 09:48:14;;;;;;;4.23;1.40;;;48.20;11.40;;;;;;5074455;28;20459;-64
2021/10/20 09:51:05;;;;;;;3.07;1.37;;;48.10;12.10;;;;;;5074171;28;20440;-64
2021/10/20 09:53:35;;;;;;;2.83;1.43;;;48.80;11.80;;;;;;5074160;28;20475;-64
2021/10/20 09:56:18;;;;;;;3.30;1.23;;;49.70;11.50;;;;;;5074211;28;20523;-64
2021/10/20 09:58:46;;;;;;;2.70;1.67;;;50.20;11.30;;;;;;5074316;28;20428;-65
2021/10/20 10:01:14;;;;;;;2.83;1.60;;;50.60;10.70;;;;;;5074279;28;20528;-64
2021/10/20 10:03:43;;;;;;;3.13;1.40;;;50.90;11.10;;;;;;5074310;28;20523;-64
2021/10/20 10:06:16;;;;;;;7.40;1.57;;;51.50;11.00;;;;;;5073893;28;20531;-64
2021/10/20 10:08:45;;;;;;;2.73;1.20;;;52.10;10.40;;;;;;5074156;28;20861;-64
2021/10/20 10:11:12;;;;;;;9.00;1.97;;;52.10;9.60;;;;;;5074072;28;20519;-64
2021/10/20 10:13:46;;;;;;;3.47;1.83;;;51.60;9.90;;;;;;5073899;28;20511;-65
2021/10/20 10:16:16;;;;;;;2.43;1.70;;;51.60;10.30;;;;;;5073947;28;20530;-64
2021/10/20 10:18:43;;;;;;;2.67;2.00;;;51.70;10.80;;;;;;5073692;28;20475;-64
2021/10/20 10:21:30;;;;;;;2.87;2.00;;;52.40;10.20;;;;;;5073624;28;20843;-64
2021/10/20 10:24:00;;;;;;;2.67;2.13;;;52.50;9.50;;;;;;5073975;28;20509;-64
2021/10/20 10:26:27;;;;;;;2.90;1.70;;;52.00;10.10;;;;;;5073759;28;20982;-64
2021/10/20 10:29:12;;;;;;;3.10;1.47;;;52.10;9.60;;;;;;5073848;28;20949;-66
2021/10/20 10:31:46;;;;;;;2.30;1.50;;;52.40;9.50;;;;;;5073757;28;20857;-65
2021/10/20 10:34:26;;;;;;;2.43;1.40;;;53.20;8.90;;;;;;5073601;28;20815;-64
2021/10/20 10:37:00;;;;;;;2.20;1.30;;;53.80;8.70;;;;;;5073418;28;20523;-64
2021/10/20 10:39:29;;;;;;;2.60;1.63;;;54.20;8.60;;;;;;5073533;28;20442;-64
2021/10/20 10:42:00;;;;;;;2.03;1.00;;;54.30;8.10;;;;;;5073255;28;20471;-65
2021/10/20 10:44:28;;;;;;;2.70;1.50;;;53.80;8.00;;;;;;5073313;28;20440;-64
2021/10/20 10:47:06;;;;;;;3.40;1.70;;;52.60;7.40;;;;;;5073355;28;20463;-66
2021/10/20 10:49:35;;;;;;;2.07;1.23;;;51.00;8.60;;;;;;5073174;28;20442;-64
2021/10/20 10:52:17;;;;;;;2.60;1.50;;;50.20;9.70;;;;;;5073085;28;20432;-64
2021/10/20 10:55:10;;;;;;;3.13;1.33;;;50.00;10.40;;;;;;5073398;28;20519;-64
2021/10/20 10:57:53;;;;;;;3.60;1.30;;;50.30;10.30;;;;;;5073112;28;20497;-64
2021/10/20 11:00:28;;;;;;;2.60;1.60;;;51.00;9.50;;;;;;5070751;28;20447;-65
2021/10/20 11:02:57;;;;;;;2.03;1.23;;;51.50;9.40;;;;;;5073226;28;20439;-64
2021/10/20 11:05:27;;;;;;;1.90;1.30;;;51.40;9.50;;;;;;5072866;28;20483;-64
2021/10/20 11:07:59;;;;;;;3.00;1.43;;;51.40;9.20;;;;;;5073047;28;20872;-65
2021/10/20 11:10:29;;;;;;;5.33;1.57;;;52.20;9.70;;;;;;5072777;28;20474;-64
2021/10/20 11:12:57;;;;;;;2.80;1.53;;;52.90;8.60;;;;;;5072616;28;20503;-65
2021/10/20 11:15:31;;;;;;;3.37;1.37;;;53.30;8.50;;;;;;5073085;28;20497;-64
2021/10/20 11:17:58;;;;;;;3.43;1.77;;;53.90;8.30;;;;;;5072826;28;20531;-64
2021/10/20 11:20:27;;;;;;;1.80;1.20;;;54.20;7.50;;;;;;5072807;28;20479;-65
2021/10/20 11:23:01;;;;;;;2.90;1.40;;;54.20;7.30;;;;;;5072988;28;20519;-65
2021/10/20 11:25:30;;;;;;;4.20;1.63;;;54.20;7.30;;;;;;5073152;28;20444;-65
2021/10/20 11:27:58;;;;;;;3.30;1.67;;;53.70;7.40;;;;;;5073022;28;20526;-64
2021/10/20 11:30:27;;;;;;;2.67;1.60;;;53.50;7.30;;;;;;5072745;28;20938;-64
2021/10/20 11:32:55;;;;;;;1.97;1.40;;;53.50;7.30;;;;;;5072973;28;20819;-64
2021/10/20 11:35:24;;;;;;;2.83;1.60;;;53.20;7.30;;;;;;5072981;28;20440;-64
2021/10/20 11:37:55;;;;;;;5.70;3.27;;;53.30;7.40;;;;;;5072967;28;20440;-65
2021/10/20 11:40:23;;;;;;;2.93;2.60;;;53.10;7.20;;;;;;5072747;28;20842;-64
2021/10/20 11:42:55;;;;;;;2.20;1.80;;;51.80;7.00;;;;;;5072774;28;20475;-64
2021/10/20 11:45:22;;;;;;;3.20;1.97;;;50.70;7.80;;;;;;5072688;28;20432;-65
2021/10/20 11:47:49;;;;;;;2.27;1.60;;;50.50;7.80;;;;;;5072984;28;20482;-64
2021/10/20 11:50:18;;;;;;;3.00;2.20;;;51.10;8.30;;;;;;5072667;28;20439;-64
2021/10/20 11:52:58;;;;;;;2.80;1.70;;;51.70;7.90;;;;;;5072754;28;20475;-64
2021/10/20 11:55:25;;;;;;;2.70;1.70;;;52.00;7.50;;;;;;5072718;28;20972;-64
2021/10/20 11:57:53;;;;;;;2.67;1.67;;;52.50;7.70;;;;;;5072645;28;20475;-64
2021/10/20 12:00:21;;;;;;;2.77;2.23;;;53.20;7.30;;;;;;5072508;28;20485;-65
2021/10/20 12:02:48;;;;;;;2.83;2.10;;;53.70;7.20;;;;;;5072490;28;20517;-64
2021/10/20 12:05:20;;;;;;;3.93;1.70;;;53.90;6.70;;;;;;5072691;28;20432;-65
2021/10/20 12:07:48;;;;;;;3.70;2.10;;;53.90;6.60;;;;;;5072664;28;20845;-65
2021/10/20 12:10:17;;;;;;;2.27;1.90;;;53.50;6.80;;;;;;5072521;28;20471;-65
2021/10/20 12:12:47;;;;;;;2.87;2.20;;;52.70;6.80;;;;;;5072610;28;20488;-65
2021/10/20 12:15:23;;;;;;;4.50;1.50;;;51.90;7.30;;;;;;5072458;28;20526;-65
2021/10/20 12:17:52;;;;;;;7.07;1.73;;;51.60;7.30;;;;;;5072526;28;20480;-66
2021/10/20 12:20:20;;;;;;;2.93;1.87;;;51.40;7.40;;;;;;5072517;28;20440;-68
2021/10/20 12:22:52;;;;;;;2.60;2.00;;;51.00;7.50;;;;;;5072500;28;20526;-64
2021/10/20 12:25:19;;;;;;;2.57;1.60;;;50.60;7.20;;;;;;5072318;28;20472;-65
2021/10/20 12:27:46;;;;;;;4.73;2.13;;;49.80;7.00;;;;;;5072380;28;20454;-64
2021/10/20 12:30:14;;;;;;;2.60;1.77;;;48.10;7.20;;;;;;5072646;28;20744;-64
2021/10/20 12:32:43;;;;;;;3.00;1.73;;;45.80;7.80;;;;;;5075589;28;20467;-65
2021/10/20 12:35:13;;;;;;;3.70;1.90;;;43.70;8.60;;;;;;5075647;28;20811;-65
2021/10/20 12:37:41;;;;;;;2.83;1.90;;;41.90;10.50;;;;;;5075661;28;20483;-63
2021/10/20 12:40:16;;;;;;;2.97;1.70;;;41.50;11.50;;;;;;5075885;28;20464;-64
2021/10/20 12:42:45;;;;;;;2.30;1.80;;;41.90;11.80;;;;;;5075421;28;20522;-63
2021/10/20 12:45:14;;;;;;;2.77;1.53;;;42.20;11.90;;;;;;5075669;28;20476;-64
2021/10/20 12:47:44;;;;;;;3.07;2.10;;;42.00;11.90;;;;;;5075666;28;20497;-64
2021/10/20 12:50:18;;;;;;;2.10;1.50;;;41.40;11.60;;;;;;5075411;28;20527;-64
2021/10/20 12:52:49;;;;;;;4.07;1.80;;;40.60;11.90;;;;;;5075692;28;20868;-64
2021/10/20 12:55:18;;;;;;;2.77;2.10;;;39.60;12.50;;;;;;5075426;28;20562;-63
2021/10/20 12:57:51;;;;;;;4.93;2.00;;;38.70;13.10;;;;;;5075516;28;21010;-64
2021/10/20 13:00:22;;;;;;;9.10;2.10;;;37.50;13.60;;;;;;5075363;28;20474;-63